createdAt,value
2019-05-14T00:02:12.325Z,1.70
2019-05-14T00:04:42.640Z,1.60
2019-05-14T00:07:12.515Z,2.00
2019-05-14T00:09:42.891Z,1.60
2019-05-14T00:12:12.512Z,1.40
2019-05-14T00:14:43.701Z,1.70
2019-05-14T00:17:13.048Z,1.50
2019-05-14T00:19:42.386Z,1.70
2019-05-14T00:22:11.851Z,1.50
2019-05-14T00:24:41.957Z,1.30
2019-05-14T00:27:11.951Z,2.62
2019-05-14T00:29:41.974Z,1.60
2019-05-14T00:32:11.538Z,1.50
2019-05-14T00:34:42.506Z,1.82
2019-05-14T00:37:11.888Z,1.40
2019-05-14T00:39:41.759Z,1.50
2019-05-14T00:42:12.525Z,3.65
2019-05-14T00:44:53.782Z,2.95
2019-05-14T00:47:13.187Z,2.47
2019-05-14T00:49:42.728Z,3.67
2019-05-14T00:52:12.267Z,2.90
2019-05-14T00:54:42.490Z,2.70
2019-05-14T00:57:12.227Z,2.67
2019-05-14T00:59:41.977Z,2.10
2019-05-14T01:02:11.770Z,1.60
2019-05-14T01:04:42.789Z,2.02
2019-05-14T01:07:12.268Z,2.02
2019-05-14T01:09:42.254Z,1.85
2019-05-14T01:12:12.402Z,2.40
2019-05-14T01:14:42.361Z,2.55
2019-05-14T01:17:11.884Z,2.37
2019-05-14T01:19:42.414Z,2.17
2019-05-14T01:22:12.635Z,2.27
2019-05-14T01:24:42.283Z,2.70
2019-05-14T01:27:12.603Z,2.20
2019-05-14T01:29:42.636Z,2.12
2019-05-14T01:32:12.216Z,1.62
2019-05-14T01:34:42.287Z,2.25
2019-05-14T01:37:12.026Z,1.55
2019-05-14T01:39:42.159Z,1.60
2019-05-14T01:42:12.424Z,1.62
2019-05-14T01:44:42.043Z,1.70
2019-05-14T01:47:12.682Z,1.57
2019-05-14T01:49:42.733Z,1.75
2019-05-14T01:52:13.072Z,1.47
2019-05-14T01:54:42.793Z,1.90
2019-05-14T01:57:12.177Z,1.47
2019-05-14T01:59:42.857Z,1.75
2019-05-14T02:02:12.278Z,1.85
2019-05-14T02:04:42.682Z,1.50
2019-05-14T02:07:15.551Z,1.80
2019-05-14T02:09:43.302Z,2.22
2019-05-14T02:12:12.565Z,2.02
2019-05-14T02:14:42.450Z,2.00
2019-05-14T02:17:12.624Z,1.55
2019-05-14T02:19:42.588Z,2.10
2019-05-14T02:22:12.064Z,2.05
2019-05-14T02:24:41.920Z,1.82
2019-05-14T02:27:12.484Z,2.30
2019-05-14T02:29:41.922Z,2.00
2019-05-14T02:32:11.286Z,1.85
2019-05-14T02:34:40.811Z,1.95
2019-05-14T02:37:10.031Z,1.70
2019-05-14T02:39:40.948Z,2.15
2019-05-14T02:42:10.384Z,2.15
2019-05-14T02:44:40.829Z,1.57
2019-05-14T02:47:10.462Z,1.60
2019-05-14T02:49:40.218Z,1.65
2019-05-14T02:52:10.392Z,1.90
2019-05-14T02:54:40.622Z,1.72
2019-05-14T02:57:10.918Z,1.75
2019-05-14T02:59:40.310Z,2.02
2019-05-14T03:02:10.388Z,1.85
2019-05-14T03:04:40.091Z,1.62
2019-05-14T03:07:10.927Z,1.60
2019-05-14T03:09:40.649Z,2.10
2019-05-14T03:12:10.556Z,2.12
2019-05-14T03:14:40.332Z,1.50
2019-05-14T03:17:10.784Z,1.60
2019-05-14T03:19:40.987Z,1.90
2019-05-14T03:22:10.640Z,1.80
2019-05-14T03:24:40.092Z,2.02
2019-05-14T03:27:10.030Z,2.05
2019-05-14T03:29:40.518Z,2.10
2019-05-14T03:32:12.695Z,1.87
2019-05-14T03:34:43.510Z,1.62
2019-05-14T03:37:13.909Z,1.85
2019-05-14T03:39:43.601Z,2.15
2019-05-14T03:42:12.869Z,2.05
2019-05-14T03:44:42.434Z,1.90
2019-05-14T03:47:11.766Z,2.05
2019-05-14T03:49:41.030Z,2.75
2019-05-14T03:52:10.310Z,2.10
2019-05-14T03:54:41.120Z,2.55
2019-05-14T03:57:10.887Z,1.62
2019-05-14T03:59:40.795Z,2.60
2019-05-14T04:02:11.199Z,2.45
2019-05-14T04:04:40.740Z,1.90
2019-05-14T04:07:11.139Z,2.50
2019-05-14T04:09:43.616Z,2.20
2019-05-14T04:12:14.050Z,1.80
2019-05-14T04:14:46.202Z,2.92
2019-05-14T04:17:31.201Z,2.37
2019-05-14T04:19:50.100Z,2.20
2019-05-14T04:22:26.158Z,2.58
2019-05-14T04:24:59.460Z,2.37
2019-05-14T04:27:30.290Z,2.50
2019-05-14T04:30:02.370Z,2.62
2019-05-14T04:32:32.870Z,2.52
2019-05-14T04:35:03.161Z,2.77
2019-05-14T04:37:32.596Z,2.95
2019-05-14T04:40:01.876Z,3.22
2019-05-14T04:42:31.193Z,2.90
2019-05-14T04:45:05.221Z,2.90
2019-05-14T04:47:36.945Z,2.98
2019-05-14T04:50:02.918Z,2.77
2019-05-14T04:52:32.181Z,2.70
2019-05-14T04:55:01.540Z,2.75
2019-05-14T04:57:30.817Z,2.62
2019-05-14T05:00:00.145Z,2.45
2019-05-14T05:02:30.325Z,3.10
2019-05-14T05:04:59.827Z,2.95
2019-05-14T05:07:29.969Z,2.45
2019-05-14T05:09:59.612Z,2.45
2019-05-14T05:12:29.758Z,2.52
2019-05-14T05:14:59.210Z,2.50
2019-05-14T05:17:42.873Z,2.33
2019-05-14T05:19:59.707Z,2.10
2019-05-14T05:22:28.979Z,2.20
2019-05-14T05:24:59.093Z,2.40
2019-05-14T05:27:28.760Z,2.25
2019-05-14T05:29:59.095Z,2.87
2019-05-14T05:32:28.744Z,2.62
2019-05-14T05:34:58.756Z,2.60
2019-05-14T05:37:29.404Z,2.47
2019-05-14T05:39:59.096Z,2.40
2019-05-14T05:42:29.479Z,2.30
2019-05-14T05:44:59.234Z,2.50
2019-05-14T05:47:28.950Z,2.10
2019-05-14T05:49:58.763Z,2.72
2019-05-14T05:52:28.372Z,2.10
2019-05-14T05:54:58.348Z,2.10
2019-05-14T05:57:28.516Z,2.05
2019-05-14T05:59:58.920Z,2.02
2019-05-14T06:02:29.197Z,2.02
2019-05-14T06:04:58.807Z,1.57
2019-05-14T06:07:28.912Z,1.87
2019-05-14T06:09:58.789Z,1.70
2019-05-14T06:12:29.572Z,1.87
2019-05-14T06:14:59.121Z,1.30
2019-05-14T06:17:28.745Z,1.50
2019-05-14T06:19:59.153Z,1.50
2019-05-14T06:22:28.779Z,1.77
2019-05-14T06:24:58.678Z,1.60
2019-05-14T06:27:28.716Z,1.50
2019-05-14T06:29:58.472Z,2.02
2019-05-14T06:32:29.111Z,1.80
2019-05-14T06:34:59.336Z,2.00
2019-05-14T06:37:30.179Z,1.47
2019-05-14T06:39:59.824Z,1.60
2019-05-14T06:42:29.428Z,1.70
2019-05-14T06:44:59.034Z,1.70
2019-05-14T06:47:29.010Z,1.72
2019-05-14T06:49:59.226Z,1.70
2019-05-14T06:52:29.253Z,1.70
2019-05-14T06:54:58.531Z,1.90
2019-05-14T06:57:28.641Z,1.67
2019-05-14T06:59:58.940Z,1.70
2019-05-14T07:02:28.630Z,1.40
2019-05-14T07:04:58.972Z,1.80
2019-05-14T07:07:30.035Z,1.70
2019-05-14T07:09:59.370Z,1.73
2019-05-14T07:12:29.344Z,1.60
2019-05-14T07:14:58.906Z,1.40
2019-05-14T07:17:28.780Z,1.70
2019-05-14T07:19:58.429Z,1.80
2019-05-14T07:22:28.109Z,1.80
2019-05-14T07:24:58.696Z,1.70
2019-05-14T07:27:28.444Z,1.83
2019-05-14T07:29:58.306Z,1.80
2019-05-14T07:32:28.741Z,1.50
2019-05-14T07:34:59.629Z,1.60
2019-05-14T07:37:28.971Z,1.50
2019-05-14T07:39:58.239Z,2.10
2019-05-14T07:42:28.862Z,1.60
2019-05-14T07:44:58.966Z,2.00
2019-05-14T07:47:29.167Z,2.03
2019-05-14T07:49:58.533Z,1.50
2019-05-14T07:52:28.598Z,1.90
2019-05-14T07:54:58.694Z,2.07
2019-05-14T07:57:28.605Z,1.70
2019-05-14T07:59:58.825Z,2.00
2019-05-14T08:02:29.068Z,1.57
2019-05-14T08:04:58.464Z,1.73
2019-05-14T08:07:28.229Z,1.63
2019-05-14T08:09:58.341Z,1.40
2019-05-14T08:12:28.536Z,1.40
2019-05-14T08:15:14.335Z,1.93
2019-05-14T08:17:29.576Z,2.30
2019-05-14T08:19:59.181Z,1.63
2019-05-14T08:22:29.170Z,1.30
2019-05-14T08:24:58.812Z,1.50
2019-05-14T08:27:31.064Z,1.57
2019-05-14T08:29:59.416Z,1.50
2019-05-14T08:32:28.960Z,1.73
2019-05-14T08:34:58.529Z,1.40
2019-05-14T08:37:28.012Z,1.53
2019-05-14T08:39:58.837Z,2.73
2019-05-14T08:42:29.101Z,1.77
2019-05-14T08:44:59.387Z,1.60
2019-05-14T08:47:29.300Z,1.90
2019-05-14T08:49:59.866Z,1.50
2019-05-14T08:52:29.473Z,1.33
2019-05-14T08:55:06.909Z,2.20
2019-05-14T08:57:30.132Z,1.80
2019-05-14T08:59:59.529Z,1.60
2019-05-14T09:02:28.829Z,1.70
2019-05-14T09:05:03.953Z,1.93
2019-05-14T09:07:29.408Z,2.00
2019-05-14T09:10:00.104Z,2.00
2019-05-14T09:12:29.747Z,1.67
2019-05-14T09:14:59.100Z,1.70
2019-05-14T09:17:28.877Z,1.50
2019-05-14T09:20:06.194Z,2.07
2019-05-14T09:22:29.311Z,1.90
2019-05-14T09:25:00.057Z,2.30
2019-05-14T09:27:29.532Z,2.30
2019-05-14T09:29:59.120Z,2.30
2019-05-14T09:32:29.137Z,1.60
2019-05-14T09:34:59.070Z,1.77
2019-05-14T09:37:28.943Z,1.60
2019-05-14T09:39:58.532Z,1.70
2019-05-14T09:42:28.579Z,1.63
2019-05-14T09:44:59.638Z,1.50
2019-05-14T09:47:28.979Z,1.80
2019-05-14T09:50:02.808Z,1.43
2019-05-14T09:52:29.500Z,1.10
2019-05-14T09:54:58.896Z,1.30
2019-05-14T09:57:28.358Z,1.93
2019-05-14T09:59:58.598Z,1.30
2019-05-14T10:02:27.992Z,1.40
2019-05-14T10:04:59.761Z,1.67
2019-05-14T10:07:28.740Z,1.70
2019-05-14T10:09:58.117Z,1.43
2019-05-14T10:12:27.389Z,1.40
2019-05-14T10:14:59.062Z,1.53
2019-05-14T10:17:28.977Z,1.20
2019-05-14T10:19:59.533Z,1.23
2019-05-14T10:22:29.034Z,1.50
2019-05-14T10:24:58.369Z,1.50
2019-05-14T10:27:28.385Z,1.60
2019-05-14T10:29:58.812Z,1.40
2019-05-14T10:32:29.480Z,1.50
2019-05-14T10:34:59.102Z,1.47
2019-05-14T10:37:28.975Z,1.20
2019-05-14T10:39:58.709Z,1.50
2019-05-14T10:42:29.365Z,1.43
2019-05-14T10:44:58.818Z,1.33
2019-05-14T10:47:29.176Z,1.27
2019-05-14T10:49:58.653Z,1.50
2019-05-14T10:52:28.843Z,1.50
2019-05-14T10:54:59.147Z,1.33
2019-05-14T10:57:29.103Z,1.60
2019-05-14T10:59:59.133Z,1.23
2019-05-14T11:02:29.194Z,1.30
2019-05-14T11:04:58.823Z,1.10
2019-05-14T11:07:29.227Z,1.30
2019-05-14T11:09:58.636Z,1.20
2019-05-14T11:12:29.700Z,1.47
2019-05-14T11:14:59.104Z,1.33
2019-05-14T11:17:29.238Z,1.30
2019-05-14T11:19:58.890Z,1.30
2019-05-14T11:22:28.975Z,1.43
2019-05-14T11:24:59.092Z,1.50
2019-05-14T11:27:29.194Z,1.43
2019-05-14T11:29:58.747Z,1.43
2019-05-14T11:32:29.089Z,1.90
2019-05-14T11:34:59.267Z,1.57
2019-05-14T11:37:28.906Z,1.20
2019-05-14T11:39:58.429Z,1.30
2019-05-14T11:42:31.527Z,1.70
2019-05-14T11:44:58.958Z,1.47
2019-05-14T11:47:28.562Z,1.40
2019-05-14T11:49:59.177Z,1.10
2019-05-14T11:52:28.852Z,1.30
2019-05-14T11:54:58.509Z,1.30
2019-05-14T11:57:27.820Z,1.50
2019-05-14T11:59:58.107Z,1.30
2019-05-14T12:02:28.935Z,1.70
2019-05-14T12:04:58.693Z,1.20
2019-05-14T12:07:28.296Z,1.37
2019-05-14T12:09:57.564Z,1.27
2019-05-14T12:12:28.780Z,1.20
2019-05-14T12:14:58.321Z,1.37
2019-05-14T12:17:29.512Z,1.17
2019-05-14T12:19:59.398Z,1.30
2019-05-14T12:22:28.902Z,1.20
2019-05-14T12:24:58.546Z,1.00
2019-05-14T12:27:28.128Z,1.20
2019-05-14T12:29:59.814Z,1.10
2019-05-14T12:32:29.607Z,1.20
2019-05-14T12:34:59.426Z,1.20
2019-05-14T12:37:29.000Z,1.00
2019-05-14T12:39:59.087Z,1.20
2019-05-14T12:42:29.574Z,1.20
2019-05-14T12:44:58.924Z,1.10
2019-05-14T12:47:29.098Z,0.87
2019-05-14T12:49:58.778Z,0.90
2019-05-14T12:52:29.724Z,1.00
2019-05-14T12:54:59.749Z,0.90
2019-05-14T12:57:30.032Z,0.90
2019-05-14T12:59:59.465Z,1.10
2019-05-14T13:02:30.198Z,0.97
2019-05-14T13:05:00.205Z,1.00
2019-05-14T13:07:29.562Z,0.90
2019-05-14T13:09:58.842Z,1.20
2019-05-14T13:12:29.766Z,1.00
2019-05-14T13:14:59.063Z,1.00
2019-05-14T13:17:28.337Z,0.93
2019-05-14T13:19:57.603Z,0.90
2019-05-14T13:22:41.486Z,1.00
2019-05-14T13:24:58.186Z,0.80
2019-05-14T13:27:28.806Z,1.03
2019-05-14T13:29:59.188Z,0.90
2019-05-14T13:32:28.991Z,0.90
2019-05-14T13:34:59.234Z,0.90
2019-05-14T13:37:28.860Z,0.80
2019-05-14T13:39:59.162Z,0.80
2019-05-14T13:42:29.552Z,0.70
2019-05-14T13:44:59.085Z,1.13
2019-05-14T13:47:28.874Z,0.97
2019-05-14T13:49:59.281Z,0.73
2019-05-14T13:52:29.361Z,0.80
2019-05-14T13:54:59.038Z,0.90
2019-05-14T13:57:28.961Z,0.70
2019-05-14T13:59:59.000Z,0.80
2019-05-14T14:02:31.269Z,0.90
2019-05-14T14:05:08.689Z,0.80
2019-05-14T14:07:39.537Z,1.00
2019-05-14T14:10:09.542Z,0.80
2019-05-14T14:12:40.336Z,0.87
2019-05-14T14:15:10.275Z,0.90
2019-05-14T14:17:39.932Z,0.90
2019-05-14T14:20:10.481Z,0.80
2019-05-14T14:22:40.391Z,1.00
2019-05-14T14:25:10.437Z,0.80
2019-05-14T14:27:41.061Z,0.90
2019-05-14T14:30:11.490Z,1.00
2019-05-14T14:32:41.078Z,0.90
2019-05-14T14:35:10.962Z,0.80
2019-05-14T14:37:40.312Z,0.90
2019-05-14T14:40:11.183Z,0.90
2019-05-14T14:42:40.829Z,0.83
2019-05-14T14:45:10.639Z,0.80
2019-05-14T14:47:40.121Z,0.80
2019-05-14T14:50:10.897Z,0.80
2019-05-14T14:52:40.182Z,0.80
2019-05-14T14:55:09.986Z,0.70
2019-05-14T14:57:44.799Z,0.70
2019-05-14T15:00:11.613Z,0.80
2019-05-14T15:02:41.506Z,0.77
2019-05-14T15:05:14.219Z,0.83
2019-05-14T15:07:42.039Z,1.00
2019-05-14T15:10:11.737Z,1.07
2019-05-14T15:12:41.187Z,0.93
2019-05-14T15:15:11.776Z,0.83
2019-05-14T15:17:41.052Z,0.90
2019-05-14T15:20:11.024Z,0.80
2019-05-14T15:22:40.331Z,0.70
2019-05-14T15:25:09.886Z,0.70
2019-05-14T15:27:39.219Z,0.93
2019-05-14T15:30:10.708Z,0.93
2019-05-14T15:32:39.979Z,0.83
2019-05-14T15:35:11.437Z,0.90
2019-05-14T15:37:42.617Z,0.70
2019-05-14T15:40:12.517Z,0.80
2019-05-14T15:42:42.063Z,0.90
2019-05-14T15:45:11.673Z,1.00
2019-05-14T15:47:40.941Z,1.00
2019-05-14T15:50:10.551Z,0.73
2019-05-14T15:52:40.024Z,0.90
2019-05-14T15:55:10.737Z,0.97
2019-05-14T15:57:40.148Z,0.90
2019-05-14T16:00:10.740Z,0.80
2019-05-14T16:02:40.185Z,0.97
2019-05-14T16:05:10.228Z,0.80
2019-05-14T16:07:41.364Z,0.90
2019-05-14T16:10:11.451Z,0.70
2019-05-14T16:12:40.710Z,1.00
2019-05-14T16:15:10.536Z,0.83
2019-05-14T16:18:03.080Z,0.80
2019-05-14T16:20:11.119Z,0.80
2019-05-14T16:22:40.401Z,0.70
2019-05-14T16:25:10.581Z,0.70
2019-05-14T16:27:40.040Z,0.70
2019-05-14T16:30:10.546Z,0.70
2019-05-14T16:32:40.071Z,0.70
2019-05-14T16:35:09.832Z,0.77
2019-05-14T16:37:39.501Z,0.97
2019-05-14T16:40:09.737Z,1.00
2019-05-14T16:42:39.904Z,0.80
2019-05-14T16:45:10.078Z,0.80
2019-05-14T16:47:40.065Z,0.90
2019-05-14T16:50:10.338Z,0.80
2019-05-14T16:52:42.332Z,0.80
2019-05-14T16:55:22.653Z,0.73
2019-05-14T16:57:42.143Z,0.87
2019-05-14T17:00:12.118Z,0.70
2019-05-14T17:02:41.481Z,0.97
2019-05-14T17:05:10.886Z,0.80
2019-05-14T17:07:40.162Z,0.80
2019-05-14T17:10:09.866Z,0.70
2019-05-14T17:12:52.412Z,0.90
2019-05-14T17:15:10.479Z,0.90
2019-05-14T17:17:39.747Z,0.77
2019-05-14T17:20:09.507Z,1.00
2019-05-14T17:22:39.635Z,0.70
2019-05-14T17:25:09.937Z,0.70
2019-05-14T17:27:39.737Z,1.00
2019-05-14T17:30:09.612Z,0.80
2019-05-14T17:32:39.415Z,0.87
2019-05-14T17:35:10.638Z,0.90
2019-05-14T17:37:40.090Z,0.80
2019-05-14T17:40:09.723Z,0.70
2019-05-14T17:42:39.603Z,0.80
2019-05-14T17:45:09.757Z,0.90
2019-05-14T17:47:39.396Z,0.70
2019-05-14T17:50:09.221Z,0.80
2019-05-14T17:52:43.323Z,0.80
2019-05-14T17:55:12.225Z,0.70
2019-05-14T17:57:47.534Z,0.60
2019-05-14T18:00:14.586Z,0.80
2019-05-14T18:02:43.853Z,0.60
2019-05-14T18:05:13.492Z,0.80
2019-05-14T18:07:42.728Z,0.70
2019-05-14T18:10:12.572Z,0.70
2019-05-14T18:12:41.848Z,0.90
2019-05-14T18:15:11.251Z,0.80
2019-05-14T18:17:40.604Z,0.70
2019-05-14T18:20:10.646Z,0.63
2019-05-14T18:22:42.445Z,0.70
2019-05-14T18:25:10.943Z,0.70
2019-05-14T18:27:40.546Z,1.00
2019-05-14T18:30:10.452Z,1.00
2019-05-14T18:32:40.063Z,0.80
2019-05-14T18:35:09.401Z,0.80
2019-05-14T18:37:39.034Z,0.80
2019-05-14T18:40:09.480Z,0.73
2019-05-14T18:42:39.223Z,0.80
2019-05-14T18:45:09.788Z,0.90
2019-05-14T18:47:40.012Z,0.80
2019-05-14T18:50:09.924Z,0.73
2019-05-14T18:52:40.125Z,0.70
2019-05-14T18:55:10.053Z,0.80
2019-05-14T18:57:39.321Z,0.70
2019-05-14T19:00:10.405Z,1.10
2019-05-14T19:02:39.681Z,0.97
2019-05-14T19:05:09.473Z,0.90
2019-05-14T19:07:39.661Z,0.80
2019-05-14T19:10:09.589Z,0.90
2019-05-14T19:12:39.144Z,0.80
2019-05-14T19:15:09.798Z,0.90
2019-05-14T19:17:39.095Z,0.90
2019-05-14T19:20:09.788Z,1.00
2019-05-14T19:22:39.876Z,1.17
2019-05-14T19:25:28.576Z,0.93
2019-05-14T19:27:58.393Z,1.00
2019-05-14T19:30:28.632Z,0.90
2019-05-14T19:32:58.091Z,0.90
2019-05-14T19:35:28.644Z,1.00
2019-05-14T19:37:59.414Z,0.80
2019-05-14T19:40:28.787Z,0.80
2019-05-14T19:42:58.062Z,0.80
2019-05-14T19:45:28.143Z,1.00
2019-05-14T19:47:58.402Z,0.90
2019-05-14T19:50:29.444Z,0.93
2019-05-14T19:52:59.079Z,1.10
2019-05-14T19:55:28.963Z,1.00
2019-05-14T19:57:58.455Z,0.70
2019-05-14T20:00:29.617Z,1.00
2019-05-14T20:02:58.882Z,0.90
2019-05-14T20:05:28.641Z,1.10
2019-05-14T20:07:58.201Z,1.00
2019-05-14T20:10:29.175Z,1.07
2019-05-14T20:12:59.175Z,1.00
2019-05-14T20:15:28.532Z,1.50
2019-05-14T20:17:58.267Z,0.90
2019-05-14T20:20:28.834Z,1.00
2019-05-14T20:22:59.049Z,1.00
2019-05-14T20:25:28.503Z,1.00
2019-05-14T20:27:58.798Z,1.00
2019-05-14T20:30:29.437Z,1.00
2019-05-14T20:32:59.382Z,0.83
2019-05-14T20:35:34.646Z,0.90
2019-05-14T20:37:59.981Z,0.90
2019-05-14T20:40:29.597Z,1.00
2019-05-14T20:42:59.093Z,1.20
2019-05-14T20:45:29.060Z,1.20
2019-05-14T20:47:58.768Z,1.07
2019-05-14T20:50:29.055Z,1.00
2019-05-14T20:52:59.313Z,1.10
2019-05-14T20:55:28.968Z,1.00
2019-05-14T20:57:58.961Z,1.00
2019-05-14T21:00:29.324Z,0.80
2019-05-14T21:02:59.683Z,1.03
2019-05-14T21:05:29.354Z,0.90
2019-05-14T21:07:59.116Z,1.00
2019-05-14T21:10:29.202Z,1.10
2019-05-14T21:12:58.781Z,0.93
2019-05-14T21:15:28.812Z,1.00
2019-05-14T21:17:59.645Z,1.00
2019-05-14T21:20:29.069Z,0.93
2019-05-14T21:22:58.781Z,1.00
2019-05-14T21:25:29.653Z,1.00
2019-05-14T21:27:59.302Z,0.93
2019-05-14T21:30:29.505Z,1.03
2019-05-14T21:33:00.400Z,0.93
2019-05-14T21:35:29.985Z,1.00
2019-05-14T21:37:59.715Z,1.00
2019-05-14T21:40:32.011Z,0.90
2019-05-14T21:42:59.998Z,0.97
2019-05-14T21:45:29.630Z,1.10
2019-05-14T21:47:59.562Z,1.20
2019-05-14T21:50:29.041Z,1.10
2019-05-14T21:52:59.694Z,1.00
2019-05-14T21:55:29.090Z,1.10
2019-05-14T21:57:58.340Z,1.10
2019-05-14T22:00:32.692Z,1.00
2019-05-14T22:03:01.957Z,1.00
2019-05-14T22:05:31.226Z,1.17
2019-05-14T22:08:00.494Z,1.03
2019-05-14T22:10:29.768Z,1.20
2019-05-14T22:12:59.027Z,1.20
2019-05-14T22:15:29.198Z,1.23
2019-05-14T22:17:59.019Z,1.10
2019-05-14T22:20:28.928Z,1.10
2019-05-14T22:22:59.084Z,1.07
2019-05-14T22:25:28.882Z,1.37
2019-05-14T22:28:11.416Z,1.37
2019-05-14T22:30:29.480Z,1.20
2019-05-14T22:33:00.738Z,1.10
2019-05-14T22:35:31.264Z,0.90
2019-05-14T22:38:00.574Z,1.17
2019-05-14T22:40:29.832Z,1.10
2019-05-14T22:43:00.430Z,1.30
2019-05-14T22:45:30.037Z,1.50
2019-05-14T22:47:59.393Z,1.17
2019-05-14T22:50:29.358Z,1.10
2019-05-14T22:52:58.892Z,1.20
2019-05-14T22:55:28.927Z,1.30
2019-05-14T22:57:59.714Z,1.20
2019-05-14T23:00:29.144Z,1.40
2019-05-14T23:02:59.012Z,1.40
2019-05-14T23:05:29.119Z,1.07
2019-05-14T23:07:58.561Z,1.25
2019-05-14T23:10:27.820Z,1.40
2019-05-14T23:12:58.546Z,1.33
2019-05-14T23:15:28.983Z,1.40
2019-05-14T23:17:58.838Z,1.23
2019-05-14T23:20:29.110Z,1.07
2019-05-14T23:23:18.521Z,1.10
2019-05-14T23:25:47.923Z,1.20
2019-05-14T23:28:19.147Z,1.55
2019-05-14T23:30:48.246Z,1.47
2019-05-14T23:33:19.051Z,1.20
2019-05-14T23:35:48.550Z,1.40
2019-05-14T23:38:18.995Z,1.57
2019-05-14T23:40:49.336Z,1.50
2019-05-14T23:43:18.765Z,1.50
2019-05-14T23:45:48.029Z,1.40
2019-05-14T23:48:18.835Z,1.72
2019-05-14T23:50:48.794Z,1.72
2019-05-14T23:53:18.518Z,1.45
2019-05-14T23:55:48.226Z,1.50
2019-05-14T23:58:20.493Z,1.30
